Time,TemperatureF,DewpointF,PressureIn,WindDirection,WindDirectionDegrees,WindSpeedMPH,WindSpeedGustMPH,Humidity,HourlyPrecipIn,Conditions,Clouds,dailyrainin,SoftwareType,DateUTC
2013-02-23 03:00:00,10.5,6.9,30.04,SW,216,0.0,0.0,85,0.00,CLR,,0.00,WeatherDisplay:10.37,2013-02-23 09:00:00,
2013-02-23 03:10:00,11.4,8.3,30.03,SW,216,0.0,0.0,87,0.00,CLR,,0.00,WeatherDisplay:10.37,2013-02-23 09:10:00,
2013-02-23 03:15:00,11.7,8.6,30.03,SW,216,0.0,0.0,87,0.00,CLR,,0.00,WeatherDisplay:10.37,2013-02-23 09:15:00,
2013-02-23 03:20:00,12.1,8.9,30.02,SW,218,0.0,0.0,87,0.00,CLR,,0.00,WeatherDisplay:10.37,2013-02-23 09:20:00,
2013-02-23 03:25:00,12.2,8.8,30.02,SW,219,0.0,0.0,86,0.00,CLR,,0.00,WeatherDisplay:10.37,2013-02-23 09:25:00,
2013-02-23 03:30:00,12.2,8.8,30.02,SW,219,0.0,0.0,86,0.00,CLR,,0.00,WeatherDisplay:10.37,2013-02-23 09:30:00,
2013-02-23 03:40:00,11.9,8.5,30.02,SW,219,0.0,0.0,86,0.00,CLR,,0.00,WeatherDisplay:10.37,2013-02-23 09:40:00,
2013-02-23 03:45:00,12.0,8.6,30.02,SW,219,0.0,0.0,86,0.00,CLR,,0.00,WeatherDisplay:10.37,2013-02-23 09:45:00,
2013-02-23 03:50:00,12.1,8.7,30.02,SW,220,0.0,0.0,86,0.00,CLR,,0.00,WeatherDisplay:10.37,2013-02-23 09:50:00,
2013-02-23 03:55:00,12.1,8.8,30.02,SW,221,0.0,0.0,86,0.00,CLR,,0.00,WeatherDisplay:10.37,2013-02-23 09:55:00,
2013-02-23 04:00:00,11.8,8.4,30.02,SW,221,0.0,0.0,86,0.00,CLR,,0.00,WeatherDisplay:10.37,2013-02-23 10:00:00,
2013-02-23 04:05:00,11.3,7.9,30.02,SW,221,0.0,0.0,86,0.00,CLR,,0.00,WeatherDisplay:10.37,2013-02-23 10:05:00,
2013-02-23 04:10:00,10.8,7.2,30.02,SW,221,0.0,0.0,85,0.00,CLR,,0.00,WeatherDisplay:10.37,2013-02-23 10:10:00,
2013-02-23 04:15:00,10.5,6.8,30.01,SW,221,0.0,0.0,85,0.00,CLR,,0.00,WeatherDisplay:10.37,2013-02-23 10:15:00,
2013-02-23 04:20:00,10.6,7.3,30.01,SW,221,0.0,0.0,86,0.00,CLR,,0.00,WeatherDisplay:10.37,2013-02-23 10:20:00,
2013-02-23 04:25:00,11.1,7.7,30.02,SW,221,0.0,0.0,86,0.00,CLR,,0.00,WeatherDisplay:10.37,2013-02-23 10:25:00,
2013-02-23 04:30:00,11.4,8.0,30.01,SW,221,0.0,0.0,86,0.00,CLR,,0.00,WeatherDisplay:10.37,2013-02-23 10:30:00,
2013-02-23 04:40:00,11.5,8.1,30.01,SW,223,0.0,0.0,86,0.00,CLR,,0.00,WeatherDisplay:10.37,2013-02-23 10:40:00,
2013-02-23 04:45:00,11.5,8.1,30.01,SW,223,0.0,0.0,86,0.00,CLR,,0.00,WeatherDisplay:10.37,2013-02-23 10:45:00,
2013-02-23 04:50:00,11.5,8.1,30.01,SW,224,0.0,0.0,86,0.00,CLR,,0.00,WeatherDisplay:10.37,2013-02-23 10:50:00,
2013-02-23 05:00:00,11.9,8.5,30.00,SW,235,0.0,0.0,86,0.00,CLR,,0.00,WeatherDisplay:10.37,2013-02-23 11:00:00,
2013-02-23 05:10:00,11.4,7.7,30.00,SW,236,0.0,0.0,85,0.00,CLR,,0.00,WeatherDisplay:10.37,2013-02-23 11:10:00,
2013-02-23 05:15:00,10.5,6.6,30.00,SW,236,0.0,0.0,84,0.00,CLR,,0.00,WeatherDisplay:10.37,2013-02-23 11:15:00,
2013-02-23 05:20:00,9.8,6.0,30.00,SW,236,0.0,0.0,84,0.00,CLR,,0.00,WeatherDisplay:10.37,2013-02-23 11:20:00,
2013-02-23 05:25:00,9.7,6.1,30.01,SW,236,0.0,0.0,85,0.00,CLR,,0.00,WeatherDisplay:10.37,2013-02-23 11:25:00,
2013-02-23 05:30:00,9.3,5.4,30.01,SW,236,0.0,0.0,84,0.00,CLR,,0.00,WeatherDisplay:10.37,2013-02-23 11:30:00,
2013-02-23 05:40:00,9.7,6.1,30.01,SW,236,0.0,0.0,85,0.00,CLR,,0.00,WeatherDisplay:10.37,2013-02-23 11:40:00,
2013-02-23 05:50:00,9.1,5.2,30.01,SW,236,0.0,0.0,84,0.00,CLR,,0.00,WeatherDisplay:10.37,2013-02-23 11:50:00,
2013-02-23 05:55:00,8.8,4.9,30.01,SW,236,0.0,0.0,84,0.00,CLR,,0.00,WeatherDisplay:10.37,2013-02-23 11:55:00,
2013-02-23 06:00:00,8.2,4.3,30.01,SW,236,0.0,0.0,84,0.00,CLR,,0.00,WeatherDisplay:10.37,2013-02-23 12:00:00,
2013-02-23 06:10:00,7.5,3.7,30.00,SW,236,0.0,0.0,84,0.00,CLR,,0.00,WeatherDisplay:10.37,2013-02-23 12:10:00,
2013-02-23 06:15:00,8.0,4.4,30.00,SW,236,0.0,0.0,85,0.00,CLR,,0.00,WeatherDisplay:10.37,2013-02-23 12:15:00,
2013-02-23 06:20:00,8.1,4.5,30.00,SW,236,0.0,0.0,85,0.00,CLR,,0.00,WeatherDisplay:10.37,2013-02-23 12:20:00,
2013-02-23 06:25:00,8.3,4.8,30.00,SW,236,0.0,0.0,85,0.00,CLR,,0.00,WeatherDisplay:10.37,2013-02-23 12:25:00,
2013-02-23 06:30:00,8.6,5.0,30.00,SW,236,0.0,0.0,85,0.00,CLR,,0.00,WeatherDisplay:10.37,2013-02-23 12:30:00,
2013-02-23 06:40:00,8.6,5.0,30.00,SW,236,0.0,0.0,85,0.00,CLR,,0.00,WeatherDisplay:10.37,2013-02-23 12:40:00,
2013-02-23 06:45:00,8.7,5.1,30.00,SW,236,0.0,0.0,85,0.00,CLR,,0.00,WeatherDisplay:10.37,2013-02-23 12:45:00,
2013-02-23 06:50:00,9.0,5.4,30.00,SW,236,0.0,0.0,85,0.00,CLR,,0.00,WeatherDisplay:10.37,2013-02-23 12:50:00,
2013-02-23 06:55:00,9.0,5.4,30.00,SW,236,0.0,0.0,85,0.00,CLR,,0.00,WeatherDisplay:10.37,2013-02-23 12:55:00,
2013-02-23 07:00:00,8.9,5.3,30.00,SW,236,0.0,0.0,85,0.00,CLR,,0.00,WeatherDisplay:10.37,2013-02-23 13:00:00,
2013-02-23 07:10:00,9.0,5.4,30.00,SW,236,0.0,0.0,85,0.00,FEW,,0.00,WeatherDisplay:10.37,2013-02-23 13:10:00,
2013-02-23 07:15:00,9.0,5.4,30.00,SW,236,0.0,0.0,85,0.00,FEW,,0.00,WeatherDisplay:10.37,2013-02-23 13:15:00,
2013-02-23 07:20:00,8.7,4.9,30.00,SW,236,0.0,0.0,84,0.00,FEW,,0.00,WeatherDisplay:10.37,2013-02-23 13:20:00,
2013-02-23 07:30:00,8.6,5.0,30.00,SW,236,0.0,0.0,85,0.00,FEW,,0.00,WeatherDisplay:10.37,2013-02-23 13:30:00,
2013-02-23 07:40:00,8.4,4.8,30.00,SW,236,0.0,0.0,85,0.00,FEW,,0.00,WeatherDisplay:10.37,2013-02-23 13:40:00,
2013-02-23 07:45:00,8.7,5.1,30.00,SW,236,0.0,0.0,85,0.00,FEW,,0.00,WeatherDisplay:10.37,2013-02-23 13:45:00,
2013-02-23 07:50:00,9.0,5.4,30.00,SW,236,0.0,0.0,85,0.00,FEW,,0.00,WeatherDisplay:10.37,2013-02-23 13:50:00,
2013-02-23 07:55:00,8.9,5.4,30.00,SW,236,0.0,0.0,85,0.00,FEW,,0.00,WeatherDisplay:10.37,2013-02-23 13:55:00,
2013-02-23 08:00:00,8.7,4.9,30.00,SW,236,0.0,0.0,84,0.00,FEW,,0.00,WeatherDisplay:10.37,2013-02-23 14:00:00,
2013-02-23 08:05:00,8.7,4.9,30.00,SW,236,0.0,0.0,84,0.00,CLR,,0.00,WeatherDisplay:10.37,2013-02-23 14:05:00,
2013-02-23 08:10:00,9.2,5.6,30.00,SW,236,0.0,0.0,85,0.00,CLR,,0.00,WeatherDisplay:10.37,2013-02-23 14:10:00,
2013-02-23 08:15:00,9.6,6.0,30.00,SW,236,0.0,0.0,85,0.00,CLR,,0.00,WeatherDisplay:10.37,2013-02-23 14:15:00,
2013-02-23 08:20:00,9.9,6.3,30.00,SW,236,0.0,0.0,85,0.00,CLR,,0.00,WeatherDisplay:10.37,2013-02-23 14:20:00,
2013-02-23 08:25:00,10.5,6.9,30.00,SW,236,0.0,0.0,85,0.00,CLR,,0.00,WeatherDisplay:10.37,2013-02-23 14:25:00,
2013-02-23 08:30:00,11.3,7.6,30.00,SW,227,0.0,0.0,85,0.00,CLR,,0.00,WeatherDisplay:10.37,2013-02-23 14:30:00,
2013-02-23 08:40:00,12.4,8.8,29.99,SW,223,0.0,0.0,85,0.00,CLR,,0.00,WeatherDisplay:10.37,2013-02-23 14:40:00,
2013-02-23 08:45:00,13.1,9.7,29.99,SW,224,0.0,0.0,86,0.00,CLR,,0.00,WeatherDisplay:10.37,2013-02-23 14:45:00,
2013-02-23 08:50:00,13.8,10.4,29.99,SW,224,0.0,0.0,86,0.00,CLR,,0.00,WeatherDisplay:10.37,2013-02-23 14:50:00,
2013-02-23 08:55:00,14.0,10.3,30.00,SW,224,0.0,0.0,85,0.00,CLR,,0.00,WeatherDisplay:10.37,2013-02-23 14:55:00,
2013-02-23 09:00:00,14.2,10.5,30.00,SW,224,0.0,0.0,85,0.00,CLR,,0.00,WeatherDisplay:10.37,2013-02-23 15:00:00,
2013-02-23 09:10:00,13.9,10.0,30.00,SW,224,0.0,0.0,84,0.00,CLR,,0.00,WeatherDisplay:10.37,2013-02-23 15:10:00,
2013-02-23 09:15:00,14.1,10.1,30.00,SW,224,0.0,0.0,84,0.00,CLR,,0.00,WeatherDisplay:10.37,2013-02-23 15:15:00,
2013-02-23 09:20:00,14.7,11.0,30.00,SW,224,0.0,0.0,85,0.00,CLR,,0.00,WeatherDisplay:10.37,2013-02-23 15:20:00,
2013-02-23 09:25:00,15.2,11.5,30.00,SW,224,0.0,0.0,85,0.00,CLR,,0.00,WeatherDisplay:10.37,2013-02-23 15:25:00,
2013-02-23 09:30:00,15.3,11.6,30.00,SW,224,0.0,0.0,85,0.00,CLR,,0.00,WeatherDisplay:10.37,2013-02-23 15:30:00,
2013-02-23 09:40:00,17.2,13.7,30.00,SW,224,0.0,0.0,86,0.00,CLR,,0.00,WeatherDisplay:10.37,2013-02-23 15:40:00,
2013-02-23 09:45:00,17.9,14.4,30.00,SW,224,0.0,0.0,86,0.00,CLR,,0.00,WeatherDisplay:10.37,2013-02-23 15:45:00,
2013-02-23 09:50:00,18.5,14.7,30.00,SW,224,0.0,0.0,85,0.00,CLR,,0.00,WeatherDisplay:10.37,2013-02-23 15:50:00,
2013-02-23 09:55:00,19.0,14.9,30.00,SW,224,0.0,0.0,84,0.00,CLR,,0.00,WeatherDisplay:10.37,2013-02-23 15:55:00,
2013-02-23 10:00:00,19.5,15.2,30.00,SW,224,0.0,0.0,83,0.00,CLR,,0.00,WeatherDisplay:10.37,2013-02-23 16:00:00,
2013-02-23 10:05:00,20.1,15.5,30.00,SW,224,0.0,0.0,82,0.00,CLR,,0.00,WeatherDisplay:10.37,2013-02-23 16:05:00,
2013-02-23 10:10:00,20.6,15.1,30.00,SW,224,0.0,0.0,79,0.00,CLR,,0.00,WeatherDisplay:10.37,2013-02-23 16:10:00,
2013-02-23 10:15:00,20.9,14.8,30.00,SW,224,0.0,0.0,77,0.00,CLR,,0.00,WeatherDisplay:10.37,2013-02-23 16:15:00,
2013-02-23 10:20:00,21.5,15.4,30.00,SW,224,0.0,0.0,77,0.00,CLR,,0.00,WeatherDisplay:10.37,2013-02-23 16:20:00,
2013-02-23 10:25:00,21.9,15.2,30.00,SW,224,0.0,0.0,75,0.00,CLR,,0.00,WeatherDisplay:10.37,2013-02-23 16:25:00,
2013-02-23 10:30:00,22.2,15.2,30.00,SW,224,0.0,0.0,74,0.00,CLR,,0.00,WeatherDisplay:10.37,2013-02-23 16:30:00,
2013-02-23 10:40:00,23.8,16.4,30.00,SW,225,0.0,0.0,73,0.00,CLR,,0.00,WeatherDisplay:10.37,2013-02-23 16:40:00,
2013-02-23 10:45:00,24.8,17.0,30.00,SW,229,0.0,0.0,72,0.00,CLR,,0.00,WeatherDisplay:10.37,2013-02-23 16:45:00,
2013-02-23 10:50:00,25.3,16.3,29.99,SW,230,0.0,0.0,68,0.00,CLR,,0.00,WeatherDisplay:10.37,2013-02-23 16:50:00,
2013-02-23 11:00:00,26.4,16.6,30.00,WSW,246,0.0,0.0,66,0.00,CLR,,0.00,WeatherDisplay:10.37,2013-02-23 17:00:00,
2013-02-23 11:10:00,26.8,16.2,29.99,SW,235,0.0,0.0,64,0.00,CLR,,0.00,WeatherDisplay:10.37,2013-02-23 17:10:00,
2013-02-23 11:15:00,27.0,16.8,30.00,SW,229,0.0,0.0,65,0.00,CLR,,0.00,WeatherDisplay:10.37,2013-02-23 17:15:00,
2013-02-23 11:20:00,27.2,16.6,29.99,SW,235,0.0,0.0,64,0.00,CLR,,0.00,WeatherDisplay:10.37,2013-02-23 17:20:00,
2013-02-23 11:25:00,27.3,16.7,29.99,SW,229,0.0,0.0,64,0.00,CLR,,0.00,WeatherDisplay:10.37,2013-02-23 17:25:00,
2013-02-23 11:30:00,27.1,16.2,29.99,SW,216,0.0,0.0,63,0.00,CLR,,0.00,WeatherDisplay:10.37,2013-02-23 17:30:00,
2013-02-23 11:40:00,27.0,16.1,29.99,SSW,210,0.0,0.0,63,0.00,CLR,,0.00,WeatherDisplay:10.37,2013-02-23 17:40:00,
2013-02-23 11:45:00,27.1,15.8,29.99,SSW,210,0.0,0.0,62,0.00,CLR,,0.00,WeatherDisplay:10.37,2013-02-23 17:45:00,
2013-02-23 11:50:00,27.3,17.1,29.99,SSW,199,0.0,0.0,65,0.00,CLR,,0.00,WeatherDisplay:10.37,2013-02-23 17:50:00,
2013-02-23 11:55:00,27.3,16.7,29.99,SSW,194,0.0,0.0,64,0.00,CLR,,0.00,WeatherDisplay:10.37,2013-02-23 17:55:00,
2013-02-23 12:00:00,27.4,16.8,29.99,SSW,197,0.0,0.0,64,0.00,CLR,,0.00,WeatherDisplay:10.37,2013-02-23 18:00:00,
2013-02-23 12:10:00,27.4,16.8,29.99,SSW,196,0.0,0.0,64,0.00,CLR,,0.00,WeatherDisplay:10.37,2013-02-23 18:10:00,
2013-02-23 12:15:00,27.7,17.4,29.99,SSW,200,0.0,0.0,65,0.00,CLR,,0.00,WeatherDisplay:10.37,2013-02-23 18:15:00,
2013-02-23 12:20:00,28.0,17.4,29.98,SSW,199,0.0,0.0,64,0.00,CLR,,0.00,WeatherDisplay:10.37,2013-02-23 18:20:00,
2013-02-23 12:25:00,28.0,17.4,29.98,SSW,199,0.0,0.0,64,0.00,CLR,,0.00,WeatherDisplay:10.37,2013-02-23 18:25:00,
2013-02-23 12:30:00,28.2,17.2,29.98,SSW,204,0.0,0.0,63,0.00,CLR,,0.00,WeatherDisplay:10.37,2013-02-23 18:30:00,
2013-02-23 12:40:00,28.7,17.7,29.97,SSW,196,0.0,0.0,63,0.00,CLR,,0.00,WeatherDisplay:10.37,2013-02-23 18:40:00,
2013-02-23 12:45:00,28.9,17.8,29.97,SSW,202,0.0,0.0,63,0.00,CLR,,0.00,WeatherDisplay:10.37,2013-02-23 18:45:00,
2013-02-23 12:50:00,28.9,17.9,29.97,SSW,199,0.0,0.0,63,0.00,CLR,,0.00,WeatherDisplay:10.37,2013-02-23 18:50:00,
2013-02-23 12:55:00,29.0,17.3,29.97,SSW,195,0.0,0.0,61,0.00,CLR,,0.00,WeatherDisplay:10.37,2013-02-23 18:55:00,
2013-02-23 13:00:00,29.1,18.1,29.97,SSW,198,0.0,0.0,63,0.00,CLR,,0.00,WeatherDisplay:10.37,2013-02-23 19:00:00,
2013-02-23 13:10:00,29.7,17.9,29.97,SSW,197,0.0,0.0,61,0.00,CLR,,0.00,WeatherDisplay:10.37,2013-02-23 19:10:00,
2013-02-23 13:15:00,29.8,18.3,29.97,SSW,194,0.0,0.0,62,0.00,CLR,,0.00,WeatherDisplay:10.37,2013-02-23 19:15:00,
2013-02-23 13:20:00,29.9,17.7,29.96,SSW,194,1.0,8.0,60,0.00,CLR,,0.00,WeatherDisplay:10.37,2013-02-23 19:20:00,
2013-02-23 13:30:00,30.4,18.5,29.96,SSW,194,6.0,8.0,61,0.00,CLR,,0.00,WeatherDisplay:10.37,2013-02-23 19:30:00,
2013-02-23 13:40:00,30.5,18.6,29.95,SSW,192,5.0,8.0,61,0.00,CLR,,0.00,WeatherDisplay:10.37,2013-02-23 19:40:00,
2013-02-23 13:45:00,30.6,18.7,29.96,SSW,193,6.0,9.0,61,0.00,CLR,,0.00,WeatherDisplay:10.37,2013-02-23 19:45:00,
2013-02-23 13:50:00,30.5,19.0,29.95,South,189,5.0,9.0,62,0.00,CLR,,0.00,WeatherDisplay:10.37,2013-02-23 19:50:00,
2013-02-23 14:00:00,31.1,19.2,29.95,SSW,193,5.0,8.0,61,0.00,CLR,,0.00,WeatherDisplay:10.37,2013-02-23 20:00:00,
2013-02-23 14:10:00,31.6,19.7,29.95,South,190,5.0,8.0,61,0.00,CLR,,0.00,WeatherDisplay:10.37,2013-02-23 20:10:00,
2013-02-23 14:15:00,31.8,20.3,29.94,South,189,5.0,7.0,62,0.00,CLR,,0.00,WeatherDisplay:10.37,2013-02-23 20:15:00,
2013-02-23 14:20:00,31.8,19.9,29.94,South,189,5.0,8.0,61,0.00,CLR,,0.00,WeatherDisplay:10.37,2013-02-23 20:20:00,
2013-02-23 14:25:00,31.9,20.0,29.94,SSW,195,6.0,8.0,61,0.00,CLR,,0.00,WeatherDisplay:10.37,2013-02-23 20:25:00,
2013-02-23 14:30:00,31.9,19.6,29.94,SSW,196,6.0,9.0,60,0.00,CLR,,0.00,WeatherDisplay:10.37,2013-02-23 20:30:00,
2013-02-23 14:40:00,32.4,20.0,29.94,SSW,197,6.0,9.0,60,0.00,CLR,,0.00,WeatherDisplay:10.37,2013-02-23 20:40:00,
2013-02-23 14:45:00,32.4,20.4,29.94,SSW,199,6.0,9.0,61,0.00,CLR,,0.00,WeatherDisplay:10.37,2013-02-23 20:45:00,
2013-02-23 14:50:00,32.5,20.1,29.93,SSW,199,6.0,8.0,60,0.00,CLR,,0.00,WeatherDisplay:10.37,2013-02-23 20:50:00,
2013-02-23 14:55:00,32.5,19.7,29.94,SSW,193,7.0,10.0,59,0.00,CLR,,0.00,WeatherDisplay:10.37,2013-02-23 20:55:00,
2013-02-23 15:00:00,32.8,20.8,29.94,South,191,6.0,9.0,61,0.00,CLR,,0.00,WeatherDisplay:10.37,2013-02-23 21:00:00,
2013-02-23 15:10:00,33.1,20.7,29.93,SSW,193,6.0,9.0,60,0.00,CLR,,0.00,WeatherDisplay:10.37,2013-02-23 21:10:00,
2013-02-23 15:15:00,32.9,20.1,29.93,SSW,193,7.0,10.0,59,0.00,CLR,,0.00,WeatherDisplay:10.37,2013-02-23 21:15:00,
2013-02-23 15:20:00,32.5,20.1,29.93,SSW,197,7.0,10.0,60,0.00,CLR,,0.00,WeatherDisplay:10.37,2013-02-23 21:20:00,
2013-02-23 15:25:00,32.4,20.4,29.93,SSW,195,6.0,12.0,61,0.00,CLR,,0.00,WeatherDisplay:10.37,2013-02-23 21:25:00,
2013-02-23 15:30:00,32.4,20.4,29.93,SSW,195,7.0,10.0,61,0.00,CLR,,0.00,WeatherDisplay:10.37,2013-02-23 21:30:00,
2013-02-23 15:35:00,32.6,20.6,29.93,SSW,192,6.0,8.0,61,0.00,CLR,,0.00,WeatherDisplay:10.37,2013-02-23 21:35:00,
2013-02-23 15:40:00,32.6,20.6,29.93,South,191,6.0,8.0,61,0.00,CLR,,0.00,WeatherDisplay:10.37,2013-02-23 21:40:00,
2013-02-23 15:45:00,32.5,20.5,29.93,SSW,193,6.0,9.0,61,0.00,CLR,,0.00,WeatherDisplay:10.37,2013-02-23 21:45:00,
2013-02-23 15:50:00,32.3,20.3,29.93,SSW,196,7.0,9.0,61,0.00,CLR,,0.00,WeatherDisplay:10.37,2013-02-23 21:50:00,
2013-02-23 16:00:00,32.0,20.5,29.92,SSW,196,7.0,10.0,62,0.00,CLR,,0.00,WeatherDisplay:10.37,2013-02-23 22:00:00,
2013-02-23 16:10:00,32.1,20.5,29.93,SSW,194,6.0,10.0,62,0.00,CLR,,0.00,WeatherDisplay:10.37,2013-02-23 22:10:00,
2013-02-23 16:15:00,32.1,20.5,29.93,SSW,195,6.0,9.0,62,0.00,CLR,,0.00,WeatherDisplay:10.37,2013-02-23 22:15:00,
2013-02-23 16:20:00,32.1,20.5,29.92,SSW,194,6.0,9.0,62,0.00,CLR,,0.00,WeatherDisplay:10.37,2013-02-23 22:20:00,
2013-02-23 16:25:00,32.1,20.5,29.92,SSW,193,7.0,9.0,62,0.00,CLR,,0.00,WeatherDisplay:10.37,2013-02-23 22:25:00,
2013-02-23 16:30:00,32.0,20.4,29.92,SSW,198,6.0,10.0,62,0.00,CLR,,0.00,WeatherDisplay:10.37,2013-02-23 22:30:00,
2013-02-23 16:40:00,32.0,20.8,29.92,SSW,195,7.0,8.0,63,0.00,CLR,,0.00,WeatherDisplay:10.37,2013-02-23 22:40:00,
2013-02-23 16:45:00,32.1,20.9,29.92,SSW,195,6.0,7.0,63,0.00,CLR,,0.00,WeatherDisplay:10.37,2013-02-23 22:45:00,
2013-02-23 16:50:00,32.2,21.0,29.92,SSW,193,5.0,7.0,63,0.00,CLR,,0.00,WeatherDisplay:10.37,2013-02-23 22:50:00,
2013-02-23 16:55:00,32.2,20.6,29.91,SSW,193,5.0,8.0,62,0.00,CLR,,0.00,WeatherDisplay:10.37,2013-02-23 22:55:00,
2013-02-23 17:00:00,32.0,20.4,29.91,SSW,196,6.0,7.0,62,0.00,CLR,,0.00,WeatherDisplay:10.37,2013-02-23 23:00:00,
2013-02-23 17:10:00,31.6,20.4,29.91,SSW,199,6.0,8.0,63,0.00,CLR,,0.00,WeatherDisplay:10.37,2013-02-23 23:10:00,
2013-02-23 17:15:00,31.5,20.3,29.91,SSW,196,6.0,9.0,63,0.00,CLR,,0.00,WeatherDisplay:10.37,2013-02-23 23:15:00,
2013-02-23 17:20:00,31.6,20.8,29.91,SSW,196,3.0,7.0,64,0.00,CLR,,0.00,WeatherDisplay:10.37,2013-02-23 23:20:00,
2013-02-23 17:30:00,31.4,20.6,29.91,SSW,195,5.0,6.0,64,0.00,CLR,,0.00,WeatherDisplay:10.37,2013-02-23 23:30:00,
2013-02-23 17:40:00,30.8,20.1,29.91,SSW,197,3.0,6.0,64,0.00,CLR,,0.00,WeatherDisplay:10.37,2013-02-23 23:40:00,
2013-02-23 17:50:00,30.0,19.7,29.90,South,187,3.0,5.0,65,0.00,CLR,,0.00,WeatherDisplay:10.37,2013-02-23 23:50:00,
2013-02-23 18:00:00,28.9,19.0,29.90,South,170,3.0,7.0,66,0.00,CLR,,0.00,WeatherDisplay:10.37,2013-02-24 00:00:00,
2013-02-23 18:10:00,28.4,18.8,29.90,South,171,3.0,7.0,67,0.00,CLR,,0.00,WeatherDisplay:10.37,2013-02-24 00:10:00,
2013-02-23 18:15:00,28.0,18.8,29.90,South,173,5.0,6.0,68,0.00,CLR,,0.00,WeatherDisplay:10.37,2013-02-24 00:15:00,
2013-02-23 18:20:00,27.6,18.4,29.91,South,171,3.0,6.0,68,0.00,CLR,,0.00,WeatherDisplay:10.37,2013-02-24 00:20:00,
2013-02-23 18:30:00,26.5,18.4,29.91,South,182,5.0,6.0,71,0.00,CLR,,0.00,WeatherDisplay:10.37,2013-02-24 00:30:00,
2013-02-23 18:40:00,26.1,17.9,29.92,South,178,3.0,6.0,71,0.00,CLR,,0.00,WeatherDisplay:10.37,2013-02-24 00:40:00,
2013-02-23 18:45:00,25.8,18.0,29.92,South,183,5.0,6.0,72,0.00,CLR,,0.00,WeatherDisplay:10.37,2013-02-24 00:45:00,
2013-02-23 18:50:00,25.7,17.9,29.92,South,190,5.0,7.0,72,0.00,CLR,,0.00,WeatherDisplay:10.37,2013-02-24 00:50:00,
2013-02-23 19:00:00,25.3,17.5,29.92,South,186,5.0,5.0,72,0.00,CLR,,0.00,WeatherDisplay:10.37,2013-02-24 01:00:00,
2013-02-23 19:10:00,25.2,17.4,29.92,South,177,3.0,5.0,72,0.00,CLR,,0.00,WeatherDisplay:10.37,2013-02-24 01:10:00,
2013-02-23 19:15:00,25.0,17.2,29.92,South,176,3.0,5.0,72,0.00,CLR,,0.00,WeatherDisplay:10.37,2013-02-24 01:15:00,
2013-02-23 19:20:00,24.7,17.0,29.92,South,174,3.0,6.0,72,0.00,CLR,,0.00,WeatherDisplay:10.37,2013-02-24 01:20:00,
2013-02-23 19:30:00,24.2,16.8,29.92,SSE,167,3.0,7.0,73,0.00,CLR,,0.00,WeatherDisplay:10.37,2013-02-24 01:30:00,
2013-02-23 19:40:00,24.0,16.6,29.92,South,169,5.0,7.0,73,0.00,CLR,,0.00,WeatherDisplay:10.37,2013-02-24 01:40:00,
2013-02-23 19:45:00,23.7,16.3,29.92,South,175,5.0,5.0,73,0.00,CLR,,0.00,WeatherDisplay:10.37,2013-02-24 01:45:00,
2013-02-23 19:50:00,23.7,16.6,29.92,South,175,3.0,5.0,74,0.00,CLR,,0.00,WeatherDisplay:10.37,2013-02-24 01:50:00,
2013-02-23 19:55:00,23.6,16.5,29.92,South,176,3.0,4.0,74,0.00,CLR,,0.00,WeatherDisplay:10.37,2013-02-24 01:55:00,
2013-02-23 20:00:00,23.4,16.3,29.93,South,178,3.0,4.0,74,0.00,CLR,,0.00,WeatherDisplay:10.37,2013-02-24 02:00:00,
2013-02-23 20:05:00,23.3,16.5,29.92,South,171,3.0,4.0,75,0.00,CLR,,0.00,WeatherDisplay:10.37,2013-02-24 02:05:00,
2013-02-23 20:10:00,23.1,16.4,29.92,South,170,3.0,5.0,75,0.00,CLR,,0.00,WeatherDisplay:10.37,2013-02-24 02:10:00,
2013-02-23 20:15:00,23.4,16.9,29.93,South,183,5.0,6.0,76,0.00,CLR,,0.00,WeatherDisplay:10.37,2013-02-24 02:15:00,
2013-02-23 20:20:00,23.7,17.2,29.93,SSW,193,3.0,6.0,76,0.00,CLR,,0.00,WeatherDisplay:10.37,2013-02-24 02:20:00,
2013-02-23 20:30:00,23.5,17.0,29.93,SSW,198,6.0,7.0,76,0.00,CLR,,0.00,WeatherDisplay:10.37,2013-02-24 02:30:00,
2013-02-23 20:40:00,23.7,17.2,29.94,SSW,198,3.0,6.0,76,0.00,CLR,,0.00,WeatherDisplay:10.37,2013-02-24 02:40:00,
2013-02-23 20:45:00,23.5,17.0,29.93,SSW,197,3.0,5.0,76,0.00,CLR,,0.00,WeatherDisplay:10.37,2013-02-24 02:45:00,
2013-02-23 20:50:00,23.4,16.9,29.93,SSW,196,3.0,5.0,76,0.00,CLR,,0.00,WeatherDisplay:10.37,2013-02-24 02:50:00,
2013-02-23 20:55:00,23.1,16.4,29.93,SSW,193,2.0,4.0,75,0.00,CLR,,0.00,WeatherDisplay:10.37,2013-02-24 02:55:00,
2013-02-23 21:00:00,22.9,16.5,29.92,South,177,3.0,4.0,76,0.00,CLR,,0.00,WeatherDisplay:10.37,2013-02-24 03:00:00,
2013-02-23 21:10:00,22.9,16.8,29.92,South,174,3.0,5.0,77,0.00,CLR,,0.00,WeatherDisplay:10.37,2013-02-24 03:10:00,
2013-02-23 21:15:00,22.9,16.5,29.92,South,172,3.0,5.0,76,0.00,CLR,,0.00,WeatherDisplay:10.37,2013-02-24 03:15:00,
2013-02-23 21:20:00,23.1,16.9,29.92,SSE,165,3.0,5.0,77,0.00,CLR,,0.00,WeatherDisplay:10.37,2013-02-24 03:20:00,
2013-02-23 21:30:00,22.9,16.1,29.93,South,171,3.0,5.0,75,0.00,CLR,,0.00,WeatherDisplay:10.37,2013-02-24 03:30:00,
2013-02-23 21:40:00,22.6,16.2,29.94,South,172,3.0,5.0,76,0.00,CLR,,0.00,WeatherDisplay:10.37,2013-02-24 03:40:00,
2013-02-23 21:45:00,22.4,16.0,29.94,South,172,3.0,6.0,76,0.00,CLR,,0.00,WeatherDisplay:10.37,2013-02-24 03:45:00,
2013-02-23 21:50:00,22.4,16.5,29.95,South,181,6.0,7.0,78,0.00,CLR,,0.00,WeatherDisplay:10.37,2013-02-24 03:50:00,
2013-02-23 22:00:00,23.4,17.3,29.94,SSW,197,5.0,7.0,77,0.00,CLR,,0.00,WeatherDisplay:10.37,2013-02-24 04:00:00,
2013-02-23 22:10:00,22.7,16.3,29.95,South,189,3.0,5.0,76,0.00,CLR,,0.00,WeatherDisplay:10.37,2013-02-24 04:10:00,
2013-02-23 22:15:00,22.5,16.1,29.95,South,191,3.0,5.0,76,0.00,CLR,,0.00,WeatherDisplay:10.37,2013-02-24 04:15:00,
2013-02-23 22:20:00,22.9,17.0,29.95,SSW,192,5.0,6.0,78,0.00,CLR,,0.00,WeatherDisplay:10.37,2013-02-24 04:20:00,
2013-02-23 22:30:00,22.8,16.3,29.95,South,191,3.0,5.0,76,0.00,CLR,,0.00,WeatherDisplay:10.37,2013-02-24 04:30:00,
2013-02-23 22:40:00,23.4,17.9,29.94,SSW,194,7.0,7.0,79,0.00,CLR,,0.00,WeatherDisplay:10.37,2013-02-24 04:40:00,
2013-02-23 22:45:00,24.0,17.8,29.94,SSW,195,7.0,8.0,77,0.00,CLR,,0.00,WeatherDisplay:10.37,2013-02-24 04:45:00,
2013-02-23 22:50:00,24.3,18.1,29.94,SSW,195,6.0,7.0,77,0.00,CLR,,0.00,WeatherDisplay:10.37,2013-02-24 04:50:00,
2013-02-23 23:00:00,24.0,17.5,29.95,SSW,196,6.0,7.0,76,0.00,CLR,,0.00,WeatherDisplay:10.37,2013-02-24 05:00:00,
2013-02-23 23:05:00,23.6,17.2,29.94,SSW,198,3.0,6.0,76,0.00,CLR,,0.00,WeatherDisplay:10.37,2013-02-24 05:05:00,
2013-02-23 23:10:00,22.9,16.5,29.94,SSW,192,2.0,4.0,76,0.00,CLR,,0.00,WeatherDisplay:10.37,2013-02-24 05:10:00,
2013-02-23 23:15:00,22.7,16.5,29.94,South,179,2.0,4.0,77,0.00,CLR,,0.00,WeatherDisplay:10.37,2013-02-24 05:15:00,
2013-02-23 23:20:00,22.4,16.6,29.94,South,175,2.0,4.0,78,0.00,CLR,,0.00,WeatherDisplay:10.37,2013-02-24 05:20:00,
2013-02-23 23:30:00,22.1,16.6,29.94,South,170,3.0,4.0,79,0.00,CLR,,0.00,WeatherDisplay:10.37,2013-02-24 05:30:00,
2013-02-23 23:40:00,22.0,16.5,29.94,South,170,2.0,4.0,79,0.00,CLR,,0.00,WeatherDisplay:10.37,2013-02-24 05:40:00,
2013-02-23 23:45:00,21.9,16.4,29.94,South,170,2.0,4.0,79,0.00,CLR,,0.00,WeatherDisplay:10.37,2013-02-24 05:45:00,
2013-02-23 23:50:00,21.8,16.6,29.94,South,172,3.0,4.0,80,0.00,CLR,,0.00,WeatherDisplay:10.37,2013-02-24 05:50:00,